Chickaloon, Alaska
Current Conditions -  °F | °C
As of 6:53 AM on Friday 31 Oct 2014 (Local Time) from PAAQ Reporting Station
Broken Clouds Broken Clouds  
Wind Chill:   Ceiling: 8000
Heat Index: 14°   Visibility: 10mi
Dew Point:   Wind: 8mph
Humidity: 80%   Direction: 350°N
Pressure: 29.28"   Gusts: NA
Location:  61.7964°N, 148.462°W
Report Text: PAAQ 311453Z AUTO 35007KT 10SM BKN080 M10/M13 A2928 RMK AO2 SLP921 T11001128 56010 TSNO
Loading
Personal Weather Stations






























Interactive Weather Map
Tropical Storm Tracking
New forecast layout! Learn more

10-Day Weather Forecast

Advertisements
Track Severe Weather on mobile